createdAt,value
2023-05-19T00:02:05.814Z,102616.94
2023-05-19T00:04:35.446Z,102617.81
2023-05-19T00:07:05.575Z,102611.59
2023-05-19T00:09:34.757Z,102608.88
2023-05-19T00:12:03.797Z,102479.56
2023-05-19T00:14:34.637Z,102612.34
2023-05-19T00:17:03.710Z,102605.16
2023-05-19T00:19:32.464Z,102611.28
2023-05-19T00:22:00.929Z,102610.34
2023-05-19T00:24:29.784Z,102608.63
2023-05-19T00:26:58.209Z,102611.19
2023-05-19T00:29:26.639Z,102611.19
2023-05-19T00:31:57.404Z,102612.06
2023-05-19T00:34:25.936Z,102615.66
2023-05-19T00:36:54.239Z,102609.38
2023-05-19T00:39:22.616Z,102613.84
2023-05-19T00:41:50.950Z,102616.47
2023-05-19T00:44:19.452Z,102619.19
2023-05-19T00:46:47.817Z,102620.91
2023-05-19T00:49:17.979Z,102613.78
2023-05-19T00:51:46.792Z,102599.53
2023-05-19T00:54:15.926Z,102604.91
2023-05-19T00:56:44.294Z,102603.09
2023-05-19T00:59:12.682Z,102601.28
2023-05-19T01:01:42.395Z,102602.16
2023-05-19T01:04:11.618Z,102602.19
2023-05-19T01:06:41.830Z,102604.81
2023-05-19T01:09:10.391Z,102608.31
2023-05-19T01:11:38.874Z,102594.13
2023-05-19T01:14:07.219Z,102595.03
2023-05-19T01:16:41.694Z,102602.97
2023-05-19T01:19:32.103Z,102587.91
2023-05-19T01:22:22.820Z,102593.22
2023-05-19T01:25:44.964Z,102598.47
2023-05-19T01:28:37.963Z,102588.69
2023-05-19T01:31:11.853Z,102586.94
2023-05-19T01:33:42.650Z,102592.25
2023-05-19T01:36:12.377Z,102588.59
2023-05-19T01:38:41.362Z,102581.53
2023-05-19T01:41:10.857Z,102562.63
2023-05-19T01:43:39.977Z,102576.06
2023-05-19T01:46:10.331Z,102580.47
2023-05-19T01:48:39.491Z,102591.09
2023-05-19T01:51:07.836Z,102584.84
2023-05-19T01:53:36.752Z,102588.41
2023-05-19T01:56:06.161Z,102574.09
2023-05-19T01:58:45.896Z,102583.84
2023-05-19T02:01:30.422Z,102568.69
2023-05-19T02:04:18.521Z,102558.75
2023-05-19T02:06:54.971Z,102565.88
2023-05-19T02:09:30.359Z,102559.59
2023-05-19T02:12:07.599Z,102563.13
2023-05-19T02:14:45.055Z,102573.84
2023-05-19T02:17:17.651Z,102538.88
2023-05-19T02:19:46.355Z,102560.34
2023-05-19T02:22:16.190Z,102562.19
2023-05-19T02:24:46.603Z,102577.91
2023-05-19T02:27:15.037Z,102566.50
2023-05-19T02:29:44.629Z,102555.72
2023-05-19T02:32:14.799Z,102565.38
2023-05-19T02:34:45.636Z,102560.03
2023-05-19T02:37:14.769Z,102561.03
2023-05-19T02:39:43.429Z,102555.72
2023-05-19T02:42:12.335Z,102561.97
2023-05-19T02:44:40.613Z,102547.88
2023-05-19T02:47:08.983Z,102552.34
2023-05-19T02:49:38.693Z,102553.22
2023-05-19T02:52:07.891Z,102547.94
2023-05-19T02:54:36.551Z,102547.94
2023-05-19T02:57:05.433Z,102553.28
2023-05-19T02:59:33.981Z,102550.69
2023-05-19T03:02:03.783Z,102550.59
2023-05-19T03:04:32.137Z,102547.94
2023-05-19T03:07:02.239Z,102548.88
2023-05-19T03:09:31.264Z,102549.78
2023-05-19T03:12:03.914Z,102540.88
2023-05-19T03:14:33.907Z,102540.00
2023-05-19T03:17:02.506Z,102536.50
2023-05-19T03:19:32.543Z,102536.50
2023-05-19T03:22:02.318Z,102538.22
2023-05-19T03:24:30.665Z,102537.34
2023-05-19T03:26:59.041Z,102527.53
2023-05-19T03:29:27.433Z,102533.75
2023-05-19T03:31:56.083Z,102549.69
2023-05-19T03:34:24.576Z,102524.81
2023-05-19T03:36:52.953Z,102527.44
2023-05-19T03:39:23.596Z,102529.22
2023-05-19T03:41:52.857Z,102523.91
2023-05-19T03:44:21.131Z,102523.84
2023-05-19T03:46:49.633Z,102498.91
2023-05-19T03:49:43.832Z,102534.47
2023-05-19T03:52:30.859Z,102534.53
2023-05-19T03:55:10.456Z,102529.16
2023-05-19T03:57:38.816Z,102523.78
2023-05-19T04:00:11.230Z,102537.06
2023-05-19T04:02:40.593Z,102529.09
2023-05-19T04:05:10.098Z,102530.78
2023-05-19T04:07:39.174Z,102534.38
2023-05-19T04:10:10.106Z,102534.38
2023-05-19T04:12:38.479Z,102539.69
2023-05-19T04:15:08.323Z,102530.84
2023-05-19T04:17:36.861Z,102411.44
2023-05-19T04:20:06.441Z,102537.94
2023-05-19T04:22:35.054Z,102543.28
2023-05-19T04:25:04.742Z,102535.28
2023-05-19T04:27:36.603Z,102541.47
2023-05-19T04:30:06.040Z,102549.50
2023-05-19T04:32:34.532Z,102539.78
2023-05-19T04:35:03.273Z,102539.72
2023-05-19T04:37:31.674Z,102538.03
2023-05-19T04:40:00.398Z,102541.59
2023-05-19T04:42:30.764Z,102554.09
2023-05-19T04:45:03.582Z,102553.22
2023-05-19T04:47:36.979Z,102550.63
2023-05-19T04:50:07.412Z,102548.88
2023-05-19T04:52:36.251Z,102548.91
2023-05-19T04:55:07.692Z,102553.38
2023-05-19T04:57:37.682Z,102553.44
2023-05-19T05:00:13.296Z,102565.00
2023-05-19T05:03:05.146Z,102565.91
2023-05-19T05:05:34.552Z,102564.25
2023-05-19T05:08:03.179Z,102586.41
2023-05-19T05:10:36.579Z,102561.63
2023-05-19T05:13:05.729Z,102545.56
2023-05-19T05:15:36.244Z,102560.81
2023-05-19T05:18:05.762Z,102566.19
2023-05-19T05:20:35.379Z,102558.28
2023-05-19T05:23:04.531Z,102567.25
2023-05-19T05:25:35.337Z,102572.53
2023-05-19T05:28:05.353Z,102569.97
2023-05-19T05:30:37.677Z,102563.88
2023-05-19T05:33:08.451Z,102573.63
2023-05-19T05:35:39.926Z,102569.19
2023-05-19T05:38:11.397Z,102569.28
2023-05-19T05:40:40.084Z,102568.41
2023-05-19T05:43:09.628Z,102566.72
2023-05-19T05:45:45.614Z,102567.56
2023-05-19T05:48:15.008Z,102571.25
2023-05-19T05:50:46.474Z,102575.81
2023-05-19T05:53:21.376Z,102582.09
2023-05-19T05:55:53.596Z,102566.22
2023-05-19T05:58:24.301Z,102563.56
2023-05-19T06:00:57.581Z,102561.84
2023-05-19T06:03:27.397Z,102565.41
2023-05-19T06:05:57.668Z,102560.09
2023-05-19T06:08:26.052Z,102560.09
2023-05-19T06:10:54.579Z,102566.31
2023-05-19T06:13:24.192Z,102562.81
2023-05-19T06:15:54.274Z,102570.84
2023-05-19T06:18:27.485Z,102569.16
2023-05-19T06:20:56.117Z,102574.56
2023-05-19T06:23:25.282Z,102575.47
2023-05-19T06:25:53.861Z,102570.19
2023-05-19T06:28:22.292Z,102546.19
2023-05-19T06:30:55.009Z,102564.09
2023-05-19T06:33:43.374Z,102568.53
2023-05-19T06:36:12.089Z,102569.44
2023-05-19T06:38:42.943Z,102575.69
2023-05-19T06:41:11.647Z,102577.47
2023-05-19T06:43:40.285Z,102581.03
2023-05-19T06:46:13.115Z,102580.16
2023-05-19T06:48:41.725Z,102577.44
2023-05-19T06:51:10.546Z,102573.03
2023-05-19T06:53:40.916Z,102584.59
2023-05-19T06:56:10.826Z,102578.38
2023-05-19T06:58:41.328Z,102576.56
2023-05-19T07:01:11.252Z,102577.44
2023-05-19T07:03:46.736Z,102578.34
2023-05-19T07:06:16.211Z,102581.91
2023-05-19T07:08:45.049Z,102582.75
2023-05-19T07:11:14.173Z,102583.63
2023-05-19T07:13:43.401Z,102572.09
2023-05-19T07:16:13.580Z,102575.50
2023-05-19T07:18:42.058Z,102575.41
2023-05-19T07:21:12.118Z,102569.38
2023-05-19T07:23:40.619Z,102543.63
2023-05-19T07:26:09.043Z,102567.59
2023-05-19T07:28:39.856Z,102560.53
2023-05-19T07:31:10.416Z,102573.03
2023-05-19T07:33:40.241Z,102575.66
2023-05-19T07:36:09.067Z,102568.56
2023-05-19T07:38:37.465Z,102564.97
2023-05-19T07:41:06.072Z,102559.63
2023-05-19T07:43:34.558Z,102565.88
2023-05-19T07:46:02.930Z,102571.19
2023-05-19T07:48:31.392Z,102562.19
2023-05-19T07:51:01.187Z,102573.84
2023-05-19T07:53:29.533Z,102573.84
2023-05-19T07:55:58.774Z,102558.53
2023-05-19T07:58:27.624Z,102556.06
2023-05-19T08:00:58.798Z,102563.22
2023-05-19T08:03:27.724Z,102565.00
2023-05-19T08:05:56.411Z,102562.31
2023-05-19T08:08:26.700Z,102560.53
2023-05-19T08:10:55.079Z,102551.53
2023-05-19T08:13:23.489Z,102565.66
2023-05-19T08:15:51.932Z,102562.00
2023-05-19T08:18:20.671Z,102562.78
2023-05-19T08:20:48.975Z,102559.91
2023-05-19T08:23:17.585Z,102564.47
2023-05-19T08:25:47.357Z,102563.41
2023-05-19T08:28:16.016Z,102559.66
2023-05-19T08:30:44.365Z,102558.63
2023-05-19T08:33:12.932Z,102558.31
2023-05-19T08:35:41.436Z,102553.69
2023-05-19T08:38:09.869Z,102551.84
2023-05-19T08:40:40.628Z,102544.50
2023-05-19T08:43:11.244Z,102549.63
2023-05-19T08:45:41.354Z,102540.53
2023-05-19T08:48:09.919Z,102550.41
2023-05-19T08:50:42.639Z,102536.72
2023-05-19T08:53:31.926Z,102527.66
2023-05-19T08:56:11.145Z,102505.03
2023-05-19T08:58:44.202Z,102533.22
2023-05-19T09:01:16.908Z,102537.34
2023-05-19T09:03:46.432Z,102527.09
2023-05-19T09:06:14.972Z,102529.16
2023-05-19T09:08:45.050Z,102531.72
2023-05-19T09:11:14.436Z,102529.66
2023-05-19T09:13:44.123Z,102524.88
2023-05-19T09:16:12.837Z,102536.59
2023-05-19T09:18:41.674Z,102522.94
2023-05-19T09:21:11.954Z,102519.38
2023-05-19T09:23:40.340Z,102523.75
2023-05-19T09:26:08.800Z,102519.44
2023-05-19T09:28:38.381Z,102525.72
2023-05-19T09:31:09.927Z,102524.44
2023-05-19T09:33:41.501Z,102522.44
2023-05-19T09:36:11.880Z,102519.78
2023-05-19T09:38:41.432Z,102523.81
2023-05-19T09:41:10.222Z,102485.41
2023-05-19T09:43:38.544Z,102516.47
2023-05-19T09:46:12.170Z,102509.81
2023-05-19T09:48:42.908Z,102502.44
2023-05-19T09:51:11.744Z,102501.97
2023-05-19T09:53:40.220Z,102521.78
2023-05-19T09:56:11.079Z,102520.41
2023-05-19T09:58:43.207Z,102514.41
2023-05-19T10:01:13.020Z,102517.47
2023-05-19T10:03:43.099Z,102512.41
2023-05-19T10:06:12.370Z,102511.56
2023-05-19T10:08:42.651Z,102511.03
2023-05-19T10:11:12.393Z,102509.72
2023-05-19T10:13:41.118Z,102514.91
2023-05-19T10:16:12.191Z,102508.53
2023-05-19T10:18:42.229Z,102508.75
2023-05-19T10:21:11.990Z,102514.28
2023-05-19T10:23:40.350Z,102514.13
2023-05-19T10:26:10.844Z,102497.41
2023-05-19T10:28:42.681Z,102512.22
2023-05-19T10:31:18.254Z,102498.81
2023-05-19T10:34:15.658Z,102498.34
2023-05-19T10:36:48.899Z,102497.75
2023-05-19T10:39:23.711Z,102501.59
2023-05-19T10:42:03.399Z,102492.00
2023-05-19T10:44:50.950Z,102498.44
2023-05-19T10:47:25.912Z,102495.94
2023-05-19T10:49:55.809Z,102498.03
2023-05-19T10:52:29.621Z,102479.78
2023-05-19T10:54:58.481Z,102473.66
2023-05-19T10:57:31.775Z,102439.63
2023-05-19T11:00:01.253Z,102485.31
2023-05-19T11:02:42.075Z,102476.19
2023-05-19T11:05:12.905Z,102476.69
2023-05-19T11:07:44.376Z,102463.63
2023-05-19T11:10:13.760Z,102473.75
2023-05-19T11:12:44.099Z,102481.09
2023-05-19T11:15:14.917Z,102481.75
2023-05-19T11:17:49.329Z,102468.59
2023-05-19T11:20:26.311Z,102457.94
2023-05-19T11:23:08.431Z,102474.44
2023-05-19T11:25:45.797Z,102473.94
2023-05-19T11:28:16.883Z,102465.50
2023-05-19T11:30:50.417Z,102451.22
2023-05-19T11:33:21.751Z,102465.31
2023-05-19T11:35:52.235Z,102473.81
2023-05-19T11:38:21.786Z,102464.69
2023-05-19T11:40:51.123Z,102459.06
2023-05-19T11:43:19.471Z,102460.19
2023-05-19T11:45:47.967Z,102454.72
2023-05-19T11:48:17.556Z,102462.59
2023-05-19T11:50:47.536Z,102458.88
2023-05-19T11:53:17.586Z,102436.41
2023-05-19T11:55:47.846Z,102472.06
2023-05-19T11:58:17.551Z,102457.25
2023-05-19T12:00:47.922Z,102451.31
2023-05-19T12:03:17.777Z,102452.69
2023-05-19T12:05:50.190Z,102450.47
2023-05-19T12:08:19.453Z,102423.13
2023-05-19T12:10:50.963Z,102428.50
2023-05-19T12:13:21.053Z,102446.88
2023-05-19T12:15:52.052Z,102442.50
2023-05-19T12:18:21.421Z,102447.31
2023-05-19T12:20:51.481Z,102438.94
2023-05-19T12:23:20.218Z,102439.44
2023-05-19T12:25:49.916Z,102440.44
2023-05-19T12:28:18.307Z,102440.72
2023-05-19T12:30:52.135Z,102457.28
2023-05-19T12:33:20.639Z,102449.00
2023-05-19T12:35:52.364Z,102352.31
2023-05-19T12:38:21.665Z,102435.50
2023-05-19T12:40:51.657Z,102438.13
2023-05-19T12:43:24.204Z,102432.00
2023-05-19T12:45:53.475Z,102448.22
2023-05-19T12:48:23.965Z,102427.09
2023-05-19T12:50:55.848Z,102434.34
2023-05-19T12:53:27.683Z,102421.69
2023-05-19T12:55:56.922Z,102421.41
2023-05-19T12:58:25.343Z,102432.56
2023-05-19T13:01:00.841Z,102422.53
2023-05-19T13:03:29.408Z,102415.28
2023-05-19T13:05:59.714Z,102422.56
2023-05-19T13:08:28.377Z,102418.59
2023-05-19T13:10:56.872Z,102413.09
2023-05-19T13:13:25.259Z,102409.28
2023-05-19T13:15:53.774Z,102404.59
2023-05-19T13:18:22.458Z,102403.28
2023-05-19T13:20:52.805Z,102411.38
2023-05-19T13:23:22.536Z,102401.09
2023-05-19T13:25:51.853Z,102411.53
2023-05-19T13:28:20.204Z,102402.19
2023-05-19T13:30:49.616Z,102400.59
2023-05-19T13:33:18.070Z,102397.91
2023-05-19T13:35:46.611Z,102404.03
2023-05-19T13:38:15.077Z,102405.28
2023-05-19T13:40:45.824Z,102405.59
2023-05-19T13:43:14.282Z,102403.78
2023-05-19T13:45:43.167Z,102393.13
2023-05-19T13:48:12.206Z,102387.50
2023-05-19T13:50:40.641Z,102385.84
2023-05-19T13:53:09.435Z,102383.94
2023-05-19T13:55:38.303Z,102392.34
2023-05-19T13:58:10.846Z,102383.88
2023-05-19T14:00:39.759Z,102390.84
2023-05-19T14:03:08.576Z,102295.00
2023-05-19T14:05:37.499Z,102393.72
2023-05-19T14:08:06.835Z,102398.59
2023-05-19T14:10:35.500Z,102383.00
2023-05-19T14:13:30.282Z,102370.84
2023-05-19T14:15:54.334Z,102374.63
2023-05-19T14:18:22.703Z,102375.34
2023-05-19T14:20:50.982Z,102382.31
2023-05-19T14:23:20.418Z,102375.06
2023-05-19T14:25:48.857Z,102378.38
2023-05-19T14:28:18.346Z,102375.59
2023-05-19T14:30:46.991Z,102358.47
2023-05-19T14:33:16.843Z,102365.53
2023-05-19T14:35:45.283Z,102363.75
2023-05-19T14:38:14.506Z,102383.31
2023-05-19T14:40:43.112Z,102368.81
2023-05-19T14:43:11.652Z,102368.75
2023-05-19T14:45:41.885Z,102371.47
2023-05-19T14:48:12.044Z,102369.66
2023-05-19T14:50:41.796Z,102370.63
2023-05-19T14:53:10.176Z,102372.91
2023-05-19T14:55:38.872Z,102355.44
2023-05-19T14:58:13.074Z,102365.03
2023-05-19T15:00:55.020Z,102356.53
2023-05-19T15:03:24.210Z,102355.06
2023-05-19T15:05:54.032Z,102352.88
2023-05-19T15:08:22.388Z,102354.41
2023-05-19T15:10:51.306Z,102341.50
2023-05-19T15:13:21.401Z,102347.31
2023-05-19T15:15:49.859Z,102340.00
2023-05-19T15:18:18.811Z,102347.81
2023-05-19T15:20:47.512Z,102350.25
2023-05-19T15:23:17.248Z,102342.91
2023-05-19T15:25:46.118Z,102343.25
2023-05-19T15:28:16.692Z,102338.84
2023-05-19T15:30:47.474Z,102349.53
2023-05-19T15:33:15.841Z,102336.91
2023-05-19T15:35:44.201Z,102342.09
2023-05-19T15:38:13.110Z,102338.41
2023-05-19T15:40:43.963Z,102339.84
2023-05-19T15:43:12.306Z,102336.19
2023-05-19T15:45:40.909Z,102362.09
2023-05-19T15:48:09.453Z,102334.88
2023-05-19T15:50:38.010Z,102329.38
2023-05-19T15:53:07.702Z,102315.34
2023-05-19T15:55:36.156Z,102328.91
2023-05-19T15:58:06.264Z,102335.16
2023-05-19T16:00:34.779Z,102331.28
2023-05-19T16:03:03.301Z,102328.28
2023-05-19T16:05:31.724Z,102324.09
2023-05-19T16:08:00.212Z,102329.34
2023-05-19T16:10:28.548Z,102327.28
2023-05-19T16:12:56.816Z,102322.78
2023-05-19T16:15:26.557Z,102320.84
2023-05-19T16:17:55.326Z,102328.59
2023-05-19T16:20:26.798Z,102312.56
2023-05-19T16:22:55.809Z,102200.38
2023-05-19T16:25:24.538Z,102319.25
2023-05-19T16:27:53.545Z,102316.22
2023-05-19T16:30:23.034Z,102324.97
2023-05-19T16:32:53.734Z,102313.91
2023-05-19T16:35:22.772Z,102306.59
2023-05-19T16:37:51.262Z,102302.41
2023-05-19T16:40:19.887Z,102301.34
2023-05-19T16:42:48.280Z,102301.50
2023-05-19T16:45:18.300Z,102298.59
2023-05-19T16:47:46.735Z,102302.25
2023-05-19T16:50:16.533Z,102311.34
2023-05-19T16:52:44.901Z,102308.56
2023-05-19T16:55:17.265Z,102311.13
2023-05-19T16:57:45.725Z,102310.44
2023-05-19T17:00:15.586Z,102305.69
2023-05-19T17:02:43.987Z,102309.41
2023-05-19T17:05:12.345Z,102311.19
2023-05-19T17:07:42.076Z,102307.63
2023-05-19T17:10:11.615Z,102309.66
2023-05-19T17:12:40.112Z,102288.31
2023-05-19T17:15:09.742Z,102309.38
2023-05-19T17:17:38.187Z,102294.31
2023-05-19T17:20:08.642Z,102305.09
2023-05-19T17:22:37.030Z,102307.78
2023-05-19T17:25:08.652Z,102303.75
2023-05-19T17:27:37.064Z,102324.03
2023-05-19T17:30:07.050Z,102302.97
2023-05-19T17:32:39.291Z,102310.75
2023-05-19T17:35:09.370Z,102318.13
2023-05-19T17:37:37.759Z,102315.63
2023-05-19T17:40:09.738Z,102320.97
2023-05-19T17:42:38.105Z,102319.28
2023-05-19T17:45:08.266Z,102321.25
2023-05-19T17:47:36.716Z,102322.19
2023-05-19T17:50:05.634Z,102327.44
2023-05-19T17:52:35.046Z,102315.94
2023-05-19T17:55:04.289Z,102328.56
2023-05-19T17:57:35.063Z,102323.44
2023-05-19T18:00:04.370Z,102329.06
2023-05-19T18:02:33.827Z,102320.28
2023-05-19T18:05:03.321Z,102313.16
2023-05-19T18:07:33.905Z,102323.28
2023-05-19T18:10:02.869Z,102312.66
2023-05-19T18:12:31.214Z,102324.34
2023-05-19T18:15:01.129Z,102327.78
2023-05-19T18:17:29.561Z,102323.53
2023-05-19T18:19:57.932Z,102332.72
2023-05-19T18:22:27.404Z,102321.03
2023-05-19T18:24:57.528Z,102327.69
2023-05-19T18:27:28.063Z,102325.78
2023-05-19T18:29:56.383Z,102329.34
2023-05-19T18:32:26.291Z,102339.41
2023-05-19T18:34:54.802Z,102337.66
2023-05-19T18:37:23.624Z,102334.16
2023-05-19T18:39:52.016Z,102337.78
2023-05-19T18:42:20.488Z,102328.78
2023-05-19T18:44:50.589Z,102339.41
2023-05-19T18:47:19.747Z,102335.13
2023-05-19T18:49:50.268Z,102346.78
2023-05-19T18:52:19.949Z,102343.22
2023-05-19T18:54:48.764Z,102353.06
2023-05-19T18:57:17.143Z,102344.22
2023-05-19T18:59:45.449Z,102344.34
2023-05-19T19:02:13.840Z,102344.50
2023-05-19T19:04:42.340Z,102344.66
2023-05-19T19:07:12.304Z,102344.81
2023-05-19T19:09:43.612Z,102350.31
2023-05-19T19:12:12.033Z,102349.41
2023-05-19T19:14:40.495Z,102353.78
2023-05-19T19:17:09.157Z,102341.47
2023-05-19T19:19:37.750Z,102357.38
2023-05-19T19:22:06.447Z,102350.38
2023-05-19T19:24:36.762Z,102346.94
2023-05-19T19:27:06.106Z,102354.09
2023-05-19T19:29:34.524Z,102342.63
2023-05-19T19:32:02.973Z,102365.75
2023-05-19T19:34:31.406Z,102369.41
2023-05-19T19:36:59.761Z,102365.00
2023-05-19T19:39:28.234Z,102373.06
2023-05-19T19:41:57.958Z,102374.94
2023-05-19T19:44:26.513Z,102355.47
2023-05-19T19:46:54.952Z,102369.69
2023-05-19T19:49:23.449Z,102363.50
2023-05-19T19:51:52.021Z,102370.63
2023-05-19T19:54:20.418Z,102377.81
2023-05-19T19:56:48.740Z,102371.66
2023-05-19T19:59:18.900Z,102378.75
2023-05-19T20:01:47.405Z,102376.28
2023-05-19T20:04:16.161Z,102370.88
2023-05-19T20:06:44.640Z,102375.41
2023-05-19T20:09:13.142Z,102376.25
2023-05-19T20:11:41.553Z,102282.38
2023-05-19T20:14:10.013Z,102375.59
2023-05-19T20:16:40.505Z,102381.94
2023-05-19T20:19:09.449Z,102387.22
2023-05-19T20:21:37.956Z,102386.38
2023-05-19T20:24:06.712Z,102387.34
2023-05-19T20:26:35.267Z,102385.53
2023-05-19T20:29:03.603Z,102397.19
2023-05-19T20:31:31.921Z,102397.19
2023-05-19T20:34:01.964Z,102398.16
2023-05-19T20:36:30.970Z,102399.91
2023-05-19T20:38:59.678Z,102402.56
2023-05-19T20:41:28.212Z,102403.53
2023-05-19T20:43:57.232Z,102405.38
2023-05-19T20:46:25.701Z,102399.16
2023-05-19T20:48:54.094Z,102401.13
2023-05-19T20:51:25.240Z,102391.38
2023-05-19T20:53:53.786Z,102392.28
2023-05-19T20:56:23.017Z,102387.00
2023-05-19T20:58:51.347Z,102387.94
2023-05-19T21:01:19.819Z,102394.22
2023-05-19T21:03:48.212Z,102394.25
2023-05-19T21:06:16.517Z,102392.47
2023-05-19T21:08:46.251Z,102417.50
2023-05-19T21:11:14.712Z,102387.34
2023-05-19T21:13:43.348Z,102401.63
2023-05-19T21:16:11.750Z,102395.34
2023-05-19T21:18:40.208Z,102395.34
2023-05-19T21:21:08.566Z,102398.03
2023-05-19T21:23:36.950Z,102392.72
2023-05-19T21:26:07.346Z,102401.63
2023-05-19T21:28:35.828Z,102399.94
2023-05-19T21:31:05.462Z,102399.03
2023-05-19T21:33:33.921Z,102402.66
2023-05-19T21:36:02.254Z,102408.88
2023-05-19T21:38:30.873Z,102405.28
2023-05-19T21:40:59.312Z,102403.63
2023-05-19T21:43:28.980Z,102409.84
2023-05-19T21:45:57.298Z,102405.41
2023-05-19T21:48:25.984Z,102409.94
2023-05-19T21:50:55.354Z,102404.59
2023-05-19T21:53:23.784Z,102409.03
2023-05-19T21:55:52.230Z,102402.88
2023-05-19T21:58:20.746Z,102403.75
2023-05-19T22:00:56.025Z,102410.88
2023-05-19T22:03:24.696Z,102399.41
2023-05-19T22:05:55.549Z,102315.97
2023-05-19T22:08:24.516Z,102410.16
2023-05-19T22:10:53.847Z,102405.72
2023-05-19T22:13:22.301Z,102406.63
2023-05-19T22:15:52.103Z,102412.91
2023-05-19T22:18:20.521Z,102409.38
2023-05-19T22:20:48.802Z,102403.16
2023-05-19T22:23:17.252Z,102404.91
2023-05-19T22:25:45.657Z,102409.38
2023-05-19T22:28:13.998Z,102403.25
2023-05-19T22:30:43.780Z,102401.44
2023-05-19T22:33:13.723Z,102411.22
2023-05-19T22:35:42.825Z,102416.63
2023-05-19T22:38:11.810Z,102413.94
2023-05-19T22:40:40.312Z,102416.63
2023-05-19T22:43:08.726Z,102402.38
2023-05-19T22:45:37.306Z,102416.59
2023-05-19T22:48:06.608Z,102417.50
2023-05-19T22:50:36.348Z,102408.63
2023-05-19T22:53:04.702Z,102414.84
2023-05-19T22:55:33.291Z,102416.59
2023-05-19T22:58:01.805Z,102412.16
2023-05-19T23:00:30.294Z,102407.69
2023-05-19T23:02:58.989Z,102413.06
2023-05-19T23:05:27.369Z,102416.63
2023-05-19T23:07:57.175Z,102410.41
2023-05-19T23:10:25.566Z,102417.63
2023-05-19T23:12:54.008Z,102418.59
2023-05-19T23:15:22.462Z,102412.38
2023-05-19T23:17:50.906Z,102410.69
2023-05-19T23:20:19.468Z,102405.31
2023-05-19T23:22:47.774Z,102406.25
2023-05-19T23:25:17.679Z,102407.13
2023-05-19T23:27:46.573Z,102400.06
2023-05-19T23:30:14.892Z,102403.59
2023-05-19T23:32:43.368Z,102402.69
2023-05-19T23:35:14.030Z,102404.47
2023-05-19T23:37:42.191Z,102408.91
2023-05-19T23:40:11.470Z,102412.50
2023-05-19T23:42:41.216Z,102407.16
2023-05-19T23:45:10.656Z,102405.38
2023-05-19T23:47:39.282Z,102412.47
2023-05-19T23:50:08.488Z,102405.38
2023-05-19T23:52:36.802Z,102405.41
2023-05-19T23:55:06.020Z,102400.97
2023-05-19T23:57:34.290Z,102393.00
